createdAt,value
2022-10-06T00:06:14.292Z,57.20
2022-10-06T00:16:21.028Z,57.11
2022-10-06T00:26:28.008Z,57.20
2022-10-06T00:36:34.314Z,57.29
2022-10-06T00:46:41.037Z,57.36
2022-10-06T00:56:48.024Z,57.44
2022-10-06T01:06:55.009Z,57.45
2022-10-06T01:17:01.955Z,57.50
2022-10-06T01:27:08.791Z,57.46
2022-10-06T01:37:15.779Z,57.46
2022-10-06T01:47:22.807Z,57.62
2022-10-06T01:57:29.853Z,57.66
2022-10-06T02:07:36.789Z,57.76
2022-10-06T02:17:43.724Z,57.74
2022-10-06T02:27:50.799Z,57.83
2022-10-06T02:37:57.536Z,57.65
2022-10-06T02:48:04.873Z,57.54
2022-10-06T02:58:11.711Z,57.53
2022-10-06T03:08:18.471Z,57.65
2022-10-06T03:18:26.036Z,57.74
2022-10-06T03:28:34.131Z,57.77
2022-10-06T03:38:41.436Z,57.86
2022-10-06T03:48:48.177Z,57.78
2022-10-06T03:58:54.951Z,57.91
2022-10-06T04:09:01.731Z,57.97
2022-10-06T04:19:08.734Z,57.89
2022-10-06T04:29:15.767Z,57.82
2022-10-06T04:39:22.842Z,57.75
2022-10-06T04:49:29.861Z,57.87
2022-10-06T04:59:37.124Z,57.83
2022-10-06T05:09:44.021Z,57.89
2022-10-06T05:19:50.575Z,57.71
2022-10-06T05:29:57.664Z,57.80
2022-10-06T05:40:04.333Z,57.78
2022-10-06T05:50:11.260Z,57.83
2022-10-06T06:00:18.098Z,57.89
2022-10-06T06:10:24.925Z,57.84
2022-10-06T06:20:31.996Z,57.89
2022-10-06T06:30:38.725Z,57.90
2022-10-06T06:40:45.565Z,57.82
2022-10-06T06:50:52.517Z,57.77
2022-10-06T07:00:59.396Z,57.87
2022-10-06T07:11:06.537Z,57.94
2022-10-06T07:21:13.822Z,57.85
2022-10-06T07:31:20.945Z,57.81
2022-10-06T07:41:27.969Z,57.72
2022-10-06T07:51:34.729Z,57.82
2022-10-06T08:01:41.549Z,57.84
2022-10-06T08:11:48.852Z,57.86
2022-10-06T08:21:55.233Z,57.87
2022-10-06T08:32:02.251Z,58.87
2022-10-06T08:42:08.878Z,58.13
2022-10-06T08:52:15.546Z,57.55
2022-10-06T09:02:21.855Z,57.90
2022-10-06T09:12:29.131Z,57.89
2022-10-06T09:22:35.662Z,57.72
2022-10-06T09:32:42.631Z,58.34
2022-10-06T09:42:49.483Z,57.15
2022-10-06T09:52:56.255Z,57.27
2022-10-06T10:03:03.335Z,57.39
2022-10-06T10:13:09.452Z,57.29
2022-10-06T10:23:15.315Z,57.82
2022-10-06T10:33:22.110Z,57.69
2022-10-06T10:43:28.896Z,58.06
2022-10-06T10:53:37.711Z,59.85
2022-10-06T11:03:47.840Z,59.91
2022-10-06T11:13:55.308Z,60.20
2022-10-06T11:24:01.854Z,59.97
2022-10-06T11:34:09.384Z,59.73
2022-10-06T11:44:16.653Z,59.50
2022-10-06T11:59:43.631Z,59.50
2022-10-06T12:09:52.293Z,59.59
2022-10-06T12:19:59.533Z,59.69
2022-10-06T12:30:06.333Z,59.20
2022-10-06T12:40:13.199Z,58.86
2022-10-06T12:50:19.382Z,58.94
2022-10-06T13:10:32.587Z,59.08
2022-10-06T13:20:39.641Z,59.20
2022-10-06T13:30:46.964Z,59.17
2022-10-06T13:40:53.994Z,58.84
2022-10-06T13:51:00.707Z,58.97
2022-10-06T14:01:07.891Z,59.31
2022-10-06T14:11:14.805Z,58.92
2022-10-06T14:21:20.988Z,58.98
2022-10-06T14:31:27.373Z,58.86
2022-10-06T14:41:33.995Z,58.88
2022-10-06T14:51:41.000Z,58.78
2022-10-06T15:01:47.668Z,58.56
2022-10-06T15:11:54.034Z,58.56
2022-10-06T15:22:00.641Z,58.75
2022-10-06T15:32:07.214Z,58.67
2022-10-06T15:42:14.343Z,58.88
2022-10-06T15:52:20.755Z,58.51
2022-10-06T16:02:27.294Z,58.64
2022-10-06T16:12:34.438Z,57.58
2022-10-06T16:22:41.677Z,58.46
2022-10-06T16:32:48.327Z,58.51
2022-10-06T16:42:54.525Z,58.49
2022-10-06T16:53:00.846Z,58.54
2022-10-06T17:03:06.698Z,58.45
2022-10-06T17:13:12.720Z,58.53
2022-10-06T17:23:19.120Z,58.63
2022-10-06T17:33:25.427Z,59.16
2022-10-06T17:43:31.972Z,58.26
2022-10-06T17:53:38.085Z,58.02
2022-10-06T18:03:44.434Z,58.18
2022-10-06T18:13:50.822Z,58.13
2022-10-06T18:23:57.501Z,57.90
2022-10-06T18:44:15.576Z,59.02
2022-10-06T18:54:21.628Z,59.08
2022-10-06T19:04:27.484Z,59.46
2022-10-06T19:14:33.954Z,60.23
2022-10-06T19:24:40.397Z,59.73
2022-10-06T19:34:46.927Z,59.68
2022-10-06T19:44:53.666Z,60.58
2022-10-06T19:55:00.523Z,59.49
2022-10-06T20:05:06.658Z,59.27
2022-10-06T20:15:13.118Z,59.52
2022-10-06T20:25:19.327Z,59.66
2022-10-06T20:35:26.428Z,58.95
2022-10-06T20:45:32.315Z,58.84
2022-10-06T20:55:38.367Z,59.07
2022-10-06T21:05:45.187Z,59.25
2022-10-06T21:15:51.526Z,58.92
2022-10-06T21:25:58.032Z,58.76
2022-10-06T21:36:04.715Z,58.56
2022-10-06T21:46:28.055Z,58.41
2022-10-06T21:56:24.119Z,58.62
2022-10-06T22:06:30.909Z,58.78
2022-10-06T22:16:37.775Z,58.88
2022-10-06T22:26:44.693Z,58.91
2022-10-06T22:36:51.923Z,58.91
2022-10-06T22:46:59.125Z,59.08
2022-10-06T22:57:06.119Z,59.24
2022-10-06T23:07:13.001Z,59.27
2022-10-06T23:17:20.035Z,59.53
2022-10-06T23:27:27.289Z,59.68
2022-10-06T23:37:34.672Z,59.52
2022-10-06T23:47:41.601Z,59.82
2022-10-06T23:57:48.894Z,59.63
